createdAt,value
2022-10-24T00:01:57.582Z,98281.81
2022-10-24T00:04:26.232Z,98281.97
2022-10-24T00:06:54.794Z,98290.69
2022-10-24T00:09:23.314Z,98292.72
2022-10-24T00:11:51.856Z,98289.22
2022-10-24T00:14:20.425Z,98300.63
2022-10-24T00:16:48.938Z,98302.44
2022-10-24T00:19:18.910Z,98321.28
2022-10-24T00:21:47.482Z,98307.00
2022-10-24T00:24:16.215Z,98307.81
2022-10-24T00:26:44.842Z,98303.47
2022-10-24T00:29:13.532Z,98293.75
2022-10-24T00:31:42.199Z,98299.13
2022-10-24T00:34:10.765Z,98295.41
2022-10-24T00:36:40.725Z,98292.72
2022-10-24T00:39:09.187Z,98285.69
2022-10-24T00:41:42.027Z,98289.22
2022-10-24T00:44:19.803Z,98295.41
2022-10-24T00:46:51.393Z,98296.44
2022-10-24T00:49:21.555Z,98329.34
2022-10-24T00:51:56.054Z,98313.19
2022-10-24T00:54:24.770Z,98309.88
2022-10-24T00:57:01.372Z,98313.41
2022-10-24T00:59:29.909Z,98303.69
2022-10-24T01:01:58.581Z,98292.06
2022-10-24T01:04:27.091Z,98293.91
2022-10-24T01:07:07.154Z,98289.38
2022-10-24T01:09:50.492Z,98292.91
2022-10-24T01:12:25.889Z,98285.84
2022-10-24T01:14:59.193Z,98286.69
2022-10-24T01:17:30.965Z,98278.63
2022-10-24T01:20:24.614Z,98276.13
2022-10-24T01:23:09.325Z,98280.47
2022-10-24T01:25:45.869Z,98291.22
2022-10-24T01:28:15.687Z,98285.03
2022-10-24T01:30:47.325Z,98283.16
2022-10-24T01:33:20.363Z,98286.03
2022-10-24T01:35:53.449Z,98285.84
2022-10-24T01:38:26.678Z,98280.66
2022-10-24T01:40:58.070Z,98275.94
2022-10-24T01:43:29.017Z,98271.56
2022-10-24T01:46:03.263Z,98274.25
2022-10-24T01:48:34.493Z,98283.16
2022-10-24T01:51:03.441Z,98287.72
2022-10-24T01:53:32.069Z,98273.44
2022-10-24T01:56:00.646Z,98275.09
2022-10-24T01:58:29.197Z,98286.88
2022-10-24T02:01:01.756Z,98283.16
2022-10-24T02:03:33.537Z,98272.41
2022-10-24T02:06:06.017Z,98275.09
2022-10-24T02:08:36.052Z,98279.63
2022-10-24T02:11:06.831Z,98284.19
2022-10-24T02:13:39.249Z,98288.53
2022-10-24T02:16:09.342Z,98285.03
2022-10-24T02:18:37.925Z,98282.50
2022-10-24T02:21:13.485Z,98270.91
2022-10-24T02:23:46.376Z,98264.53
2022-10-24T02:26:19.364Z,98261.84
2022-10-24T02:28:47.842Z,98261.00
2022-10-24T02:31:22.455Z,98274.44
2022-10-24T02:33:52.683Z,98255.59
2022-10-24T02:36:24.990Z,98263.69
2022-10-24T02:38:53.548Z,98245.88
2022-10-24T02:41:23.560Z,98257.47
2022-10-24T02:43:52.506Z,98253.94
2022-10-24T02:46:22.447Z,98242.16
2022-10-24T02:48:52.953Z,98226.91
2022-10-24T02:51:22.498Z,98218.16
2022-10-24T02:53:51.872Z,98233.28
2022-10-24T02:56:20.426Z,98231.63
2022-10-24T02:58:49.005Z,98244.84
2022-10-24T03:01:21.533Z,98233.94
2022-10-24T03:03:50.530Z,98225.22
2022-10-24T03:06:19.000Z,98238.66
2022-10-24T03:08:47.616Z,98252.09
2022-10-24T03:11:16.132Z,98247.75
2022-10-24T03:13:45.155Z,98239.69
2022-10-24T03:16:14.315Z,98246.91
2022-10-24T03:18:44.410Z,98250.44
2022-10-24T03:21:12.959Z,98246.91
2022-10-24T03:23:41.500Z,98239.84
2022-10-24T03:26:10.028Z,98226.41
2022-10-24T03:28:39.134Z,98246.91
2022-10-24T03:31:07.959Z,98235.31
2022-10-24T03:33:36.542Z,98245.22
2022-10-24T03:36:07.235Z,98234.47
2022-10-24T03:38:35.890Z,98233.63
2022-10-24T03:41:05.232Z,98239.00
2022-10-24T03:43:33.767Z,98248.75
2022-10-24T03:46:02.280Z,98235.31
2022-10-24T03:48:30.830Z,98239.84
2022-10-24T03:50:59.385Z,98238.84
2022-10-24T03:53:29.432Z,98234.47
2022-10-24T03:55:58.162Z,98229.09
2022-10-24T03:58:26.922Z,98220.19
2022-10-24T04:00:58.323Z,98221.84
2022-10-24T04:03:27.376Z,98232.44
2022-10-24T04:05:55.958Z,98222.88
2022-10-24T04:08:24.636Z,98233.63
2022-10-24T04:10:54.567Z,98228.44
2022-10-24T04:13:23.254Z,98226.41
2022-10-24T04:15:51.845Z,98223.91
2022-10-24T04:18:20.460Z,98226.41
2022-10-24T04:20:49.014Z,98217.50
2022-10-24T04:23:17.533Z,98218.34
2022-10-24T04:25:46.099Z,98220.38
2022-10-24T04:28:15.970Z,98232.81
2022-10-24T04:30:44.833Z,98238.19
2022-10-24T04:33:13.496Z,98227.22
2022-10-24T04:35:42.042Z,98229.91
2022-10-24T04:38:10.557Z,98208.06
2022-10-24T04:40:39.101Z,98194.06
2022-10-24T04:43:07.791Z,98193.59
2022-10-24T04:45:37.689Z,98187.56
2022-10-24T04:48:07.343Z,98189.59
2022-10-24T04:50:36.044Z,98204.91
2022-10-24T04:53:04.637Z,98198.69
2022-10-24T04:55:33.764Z,98199.06
2022-10-24T04:58:02.287Z,98205.94
2022-10-24T05:00:31.060Z,98202.56
2022-10-24T05:03:00.923Z,98201.53
2022-10-24T05:05:29.474Z,98206.91
2022-10-24T05:07:58.203Z,98198.22
2022-10-24T05:10:26.766Z,98208.41
2022-10-24T05:12:55.250Z,98208.41
2022-10-24T05:15:23.946Z,98207.94
2022-10-24T05:17:52.531Z,98196.00
2022-10-24T05:20:22.384Z,98204.00
2022-10-24T05:22:50.926Z,98197.25
2022-10-24T05:25:19.811Z,98199.94
2022-10-24T05:27:48.276Z,98213.91
2022-10-24T05:30:16.791Z,98214.75
2022-10-24T05:32:46.672Z,98205.78
2022-10-24T05:35:15.930Z,98209.50
2022-10-24T05:37:45.942Z,98206.50
2022-10-24T05:40:14.850Z,98209.72
2022-10-24T05:42:43.742Z,98201.00
2022-10-24T05:45:12.924Z,98207.88
2022-10-24T05:47:41.564Z,98214.38
2022-10-24T05:50:11.182Z,98213.53
2022-10-24T05:52:46.149Z,98219.03
2022-10-24T05:55:18.457Z,98218.19
2022-10-24T05:57:47.843Z,98220.25
2022-10-24T06:00:18.082Z,98219.97
2022-10-24T06:05:20.933Z,98220.03
2022-10-24T06:07:50.666Z,98227.91
2022-10-24T06:10:20.847Z,98220.50
2022-10-24T06:12:49.583Z,98230.41
2022-10-24T06:15:18.141Z,98254.41
2022-10-24T06:17:46.759Z,98246.41
2022-10-24T06:20:15.781Z,98257.84
2022-10-24T06:22:46.241Z,98267.94
2022-10-24T06:25:15.470Z,98259.22
2022-10-24T06:27:45.333Z,98258.19
2022-10-24T06:30:13.969Z,98248.75
2022-10-24T06:32:44.563Z,98254.63
2022-10-24T06:35:15.915Z,98253.13
2022-10-24T06:37:47.350Z,98252.75
2022-10-24T06:40:17.355Z,98250.06
2022-10-24T06:42:47.470Z,98246.34
2022-10-24T06:45:16.207Z,98243.66
2022-10-24T06:47:45.083Z,98243.66
2022-10-24T06:50:13.787Z,98238.28
2022-10-24T06:52:42.361Z,98234.59
2022-10-24T06:55:11.232Z,98243.50
2022-10-24T06:57:39.832Z,98245.34
2022-10-24T07:00:12.180Z,98254.25
2022-10-24T07:02:40.715Z,98257.75
2022-10-24T07:05:12.862Z,98261.28
2022-10-24T07:07:42.745Z,98256.75
2022-10-24T07:10:14.524Z,98246.66
2022-10-24T07:12:44.487Z,98257.41
2022-10-24T07:15:14.898Z,98269.00
2022-10-24T07:17:43.796Z,98276.88
2022-10-24T07:20:14.086Z,98266.13
2022-10-24T07:22:45.749Z,98258.88
2022-10-24T07:25:14.653Z,98261.59
2022-10-24T07:27:43.226Z,98270.47
2022-10-24T07:30:17.438Z,98257.03
2022-10-24T07:32:46.480Z,98253.34
2022-10-24T07:35:15.424Z,98256.69
2022-10-24T07:37:44.337Z,98248.78
2022-10-24T07:40:14.158Z,98251.47
2022-10-24T07:42:43.027Z,98237.22
2022-10-24T07:45:12.742Z,98233.50
2022-10-24T07:47:42.888Z,98228.94
2022-10-24T07:50:11.856Z,98235.19
2022-10-24T07:52:40.422Z,98222.72
2022-10-24T07:55:09.896Z,98209.94
2022-10-24T07:57:38.665Z,98226.09
2022-10-24T08:00:09.176Z,98222.56
2022-10-24T08:02:37.699Z,98219.88
2022-10-24T08:05:08.985Z,98205.41
2022-10-24T08:07:38.043Z,98201.88
2022-10-24T08:10:09.453Z,98211.81
2022-10-24T08:12:38.003Z,98228.78
2022-10-24T08:15:07.501Z,98242.22
2022-10-24T08:17:37.432Z,98265.59
2022-10-24T08:20:08.302Z,98262.06
2022-10-24T08:22:36.832Z,98238.88
2022-10-24T08:25:09.747Z,98230.81
2022-10-24T08:27:38.282Z,98228.94
2022-10-24T08:30:08.531Z,98209.13
2022-10-24T08:32:38.258Z,98202.06
2022-10-24T08:35:09.458Z,98207.44
2022-10-24T08:40:16.671Z,98223.56
2022-10-24T08:42:45.270Z,98215.50
2022-10-24T08:45:17.019Z,98228.47
2022-10-24T08:47:50.829Z,98237.00
2022-10-24T08:50:27.058Z,98243.41
2022-10-24T08:53:01.100Z,98259.72
2022-10-24T08:55:48.904Z,98252.50
2022-10-24T08:58:21.130Z,98216.69
2022-10-24T09:00:51.925Z,98215.69
2022-10-24T09:03:31.419Z,98224.59
2022-10-24T09:06:15.153Z,98222.72
2022-10-24T09:08:48.219Z,98225.63
2022-10-24T09:11:22.341Z,98241.94
2022-10-24T09:13:50.995Z,98245.28
2022-10-24T09:16:23.691Z,98256.69
2022-10-24T09:18:54.229Z,98249.81
2022-10-24T09:21:24.103Z,98239.25
2022-10-24T09:23:52.633Z,98240.91
2022-10-24T09:26:29.355Z,98241.75
2022-10-24T09:28:58.455Z,98241.56
2022-10-24T09:31:27.883Z,98259.72
2022-10-24T09:34:00.336Z,98253.34
2022-10-24T09:36:31.692Z,98260.75
2022-10-24T09:39:23.246Z,98255.38
2022-10-24T09:41:51.782Z,98248.13
2022-10-24T09:44:38.506Z,98247.31
2022-10-24T09:47:09.324Z,98244.44
2022-10-24T09:49:41.199Z,98234.69
2022-10-24T09:52:19.673Z,98239.25
2022-10-24T09:54:48.681Z,98240.72
2022-10-24T09:57:18.221Z,98262.41
2022-10-24T09:59:47.967Z,98263.06
2022-10-24T10:02:25.919Z,98236.19
2022-10-24T10:05:23.666Z,98223.56
2022-10-24T10:07:53.603Z,98224.44
2022-10-24T10:10:35.528Z,98229.81
2022-10-24T10:13:07.845Z,98231.84
2022-10-24T10:15:38.612Z,98229.81
2022-10-24T10:18:26.236Z,98226.91
2022-10-24T10:21:12.850Z,98220.72
2022-10-24T10:23:44.178Z,98234.16
2022-10-24T10:26:25.142Z,98226.53
2022-10-24T10:29:05.328Z,98211.22
2022-10-24T10:31:40.568Z,98215.41
2022-10-24T10:34:25.331Z,98217.09
2022-10-24T10:37:24.869Z,98219.97
2022-10-24T10:40:27.265Z,98236.09
2022-10-24T10:43:08.759Z,98233.63
2022-10-24T10:45:45.078Z,98232.75
2022-10-24T10:48:30.065Z,98239.00
2022-10-24T10:51:07.302Z,98230.06
2022-10-24T10:53:40.277Z,98219.50
2022-10-24T10:56:21.767Z,98218.47
2022-10-24T10:58:57.142Z,98212.94
2022-10-24T11:01:31.426Z,98214.59
2022-10-24T11:04:05.294Z,98210.91
2022-10-24T11:06:43.063Z,98220.47
2022-10-24T11:09:32.194Z,98209.69
2022-10-24T11:12:07.563Z,98214.22
2022-10-24T11:14:38.237Z,98210.91
2022-10-24T11:17:14.000Z,98217.28
2022-10-24T11:19:51.508Z,98217.94
2022-10-24T11:22:25.350Z,98211.06
2022-10-24T11:25:02.595Z,98210.91
2022-10-24T11:27:45.936Z,98214.22
2022-10-24T11:30:16.668Z,98214.22
2022-10-24T11:32:50.032Z,98208.66
2022-10-24T11:35:26.751Z,98215.25
2022-10-24T11:37:58.272Z,98220.25
2022-10-24T11:43:09.747Z,98230.84
2022-10-24T11:45:43.311Z,98225.63
2022-10-24T11:48:16.151Z,98218.59
2022-10-24T11:50:48.450Z,98224.97
2022-10-24T11:53:40.463Z,98224.81
2022-10-24T11:56:13.578Z,98214.22
2022-10-24T11:58:52.186Z,98219.59
2022-10-24T12:01:47.612Z,98210.91
2022-10-24T12:04:47.064Z,98201.13
2022-10-24T12:07:54.630Z,98209.22
2022-10-24T12:10:37.914Z,98204.66
2022-10-24T12:13:17.185Z,98205.53
2022-10-24T12:15:51.407Z,98206.53
2022-10-24T12:18:29.980Z,98200.13
2022-10-24T12:21:04.057Z,98194.94
2022-10-24T12:23:33.196Z,98195.59
2022-10-24T12:26:06.827Z,98200.75
2022-10-24T12:28:35.384Z,98190.00
2022-10-24T12:31:22.491Z,98181.94
2022-10-24T12:34:48.745Z,98184.00
2022-10-24T12:37:37.551Z,98184.84
2022-10-24T12:40:51.731Z,98172.38
2022-10-24T12:43:32.970Z,98182.31
2022-10-24T12:46:03.498Z,98174.25
2022-10-24T12:48:37.662Z,98175.28
2022-10-24T12:51:28.638Z,98169.06
2022-10-24T12:54:16.330Z,98158.31
2022-10-24T12:57:24.026Z,98157.28
2022-10-24T12:59:54.215Z,98159.13
2022-10-24T13:03:02.829Z,98151.06
2022-10-24T13:05:58.256Z,98172.59
2022-10-24T13:08:42.378Z,98164.31
2022-10-24T13:11:25.424Z,98164.53
2022-10-24T13:14:23.831Z,98164.53
2022-10-24T13:16:59.285Z,98168.69
2022-10-24T13:19:27.973Z,98172.66
2022-10-24T13:21:58.689Z,98156.16
2022-10-24T13:24:34.106Z,98176.00
2022-10-24T13:27:32.421Z,98183.63
2022-10-24T13:30:35.365Z,98191.22
2022-10-24T13:33:41.619Z,98184.84
2022-10-24T13:36:17.749Z,98184.84
2022-10-24T13:38:51.797Z,98178.03
2022-10-24T13:41:27.631Z,98180.28
2022-10-24T13:43:58.235Z,98180.28
2022-10-24T13:46:31.837Z,98177.59
2022-10-24T13:49:00.388Z,98176.56
2022-10-24T13:51:36.837Z,98173.03
2022-10-24T13:54:11.299Z,98167.88
2022-10-24T13:56:41.049Z,98166.19
2022-10-24T13:59:31.915Z,98176.94
2022-10-24T14:02:02.896Z,98172.38
2022-10-24T14:04:31.504Z,98178.78
2022-10-24T14:07:04.642Z,98174.25
2022-10-24T14:09:39.986Z,98177.31
2022-10-24T14:12:08.644Z,98179.34
2022-10-24T14:14:40.006Z,98175.66
2022-10-24T14:17:22.741Z,98164.88
2022-10-24T14:19:55.481Z,98164.03
2022-10-24T14:22:26.613Z,98182.03
2022-10-24T14:24:56.897Z,98184.53
2022-10-24T14:27:25.676Z,98180.16
2022-10-24T14:30:02.403Z,98182.22
2022-10-24T14:32:31.977Z,98182.03
2022-10-24T14:37:33.509Z,98186.03
2022-10-24T14:40:03.638Z,98184.00
2022-10-24T14:42:32.320Z,98177.59
2022-10-24T14:45:01.015Z,98179.44
2022-10-24T14:47:31.235Z,98178.97
2022-10-24T14:49:59.835Z,98176.28
2022-10-24T14:52:32.300Z,98181.47
2022-10-24T14:55:05.051Z,98181.66
2022-10-24T14:57:34.803Z,98180.16
2022-10-24T15:00:07.615Z,98179.34
2022-10-24T15:02:41.978Z,98171.94
2022-10-24T15:05:29.874Z,98162.50
2022-10-24T15:08:21.756Z,98170.19
2022-10-24T15:11:08.056Z,98165.81
2022-10-24T15:13:48.112Z,98168.31
2022-10-24T15:16:28.003Z,98173.25
2022-10-24T15:18:57.286Z,98162.13
2022-10-24T15:21:28.594Z,98169.91
2022-10-24T15:23:58.547Z,98178.97
2022-10-24T15:26:33.138Z,98171.94
2022-10-24T15:29:09.271Z,98182.69
2022-10-24T15:31:39.612Z,98182.03
2022-10-24T15:34:09.064Z,98188.44
2022-10-24T15:36:40.743Z,98187.59
2022-10-24T15:39:14.654Z,98186.78
2022-10-24T15:41:44.792Z,98186.78
2022-10-24T15:44:18.222Z,98178.88
2022-10-24T15:46:46.752Z,98178.88
2022-10-24T15:49:15.547Z,98180.75
2022-10-24T15:51:48.977Z,98192.16
2022-10-24T15:54:20.295Z,98185.09
2022-10-24T15:56:50.145Z,98195.84
2022-10-24T15:59:20.282Z,98194.19
2022-10-24T16:01:52.255Z,98195.00
2022-10-24T16:04:21.594Z,98194.19
2022-10-24T16:06:50.371Z,98191.88
2022-10-24T16:09:20.333Z,98190.84
2022-10-24T16:11:50.406Z,98191.66
2022-10-24T16:14:20.602Z,98192.50
2022-10-24T16:16:49.283Z,98190.84
2022-10-24T16:19:18.051Z,98193.53
2022-10-24T16:21:49.417Z,98190.84
2022-10-24T16:24:18.618Z,98196.22
2022-10-24T16:26:50.027Z,98191.88
2022-10-24T16:29:18.719Z,98198.06
2022-10-24T16:31:49.116Z,98194.56
2022-10-24T16:34:18.165Z,98189.19
2022-10-24T16:36:46.812Z,98190.00
2022-10-24T16:39:16.386Z,98181.13
2022-10-24T16:41:46.434Z,98181.28
2022-10-24T16:44:16.692Z,98183.81
2022-10-24T16:46:45.293Z,98198.25
2022-10-24T16:49:13.864Z,98193.91
2022-10-24T16:51:44.016Z,98187.69
2022-10-24T16:54:12.764Z,98185.63
2022-10-24T16:56:41.295Z,98181.28
2022-10-24T16:59:13.053Z,98190.19
2022-10-24T17:01:45.851Z,98189.34
2022-10-24T17:04:14.650Z,98193.91
2022-10-24T17:06:43.227Z,98187.47
2022-10-24T17:09:11.890Z,98192.88
2022-10-24T17:11:45.472Z,98193.06
2022-10-24T17:14:15.153Z,98193.22
2022-10-24T17:16:45.345Z,98194.88
2022-10-24T17:19:16.609Z,98194.88
2022-10-24T17:21:47.983Z,98187.84
2022-10-24T17:24:17.636Z,98183.50
2022-10-24T17:26:46.700Z,98183.69
2022-10-24T17:29:24.458Z,98186.19
2022-10-24T17:31:54.824Z,98187.03
2022-10-24T17:34:24.093Z,98186.19
2022-10-24T17:36:57.073Z,98191.56
2022-10-24T17:39:28.424Z,98195.94
2022-10-24T17:42:00.421Z,98202.31
2022-10-24T17:44:30.080Z,98207.03
2022-10-24T17:47:00.703Z,98207.03
2022-10-24T17:49:29.203Z,98204.34
2022-10-24T17:51:57.895Z,98199.63
2022-10-24T17:54:26.398Z,98191.94
2022-10-24T17:56:54.957Z,98188.22
2022-10-24T17:59:23.509Z,98182.03
2022-10-24T18:01:52.156Z,98173.13
2022-10-24T18:04:22.196Z,98174.78
2022-10-24T18:06:50.684Z,98172.09
2022-10-24T18:09:19.242Z,98172.25
2022-10-24T18:11:47.855Z,98173.88
2022-10-24T18:14:16.485Z,98180.06
2022-10-24T18:16:44.941Z,98177.84
2022-10-24T18:19:14.205Z,98185.38
2022-10-24T18:21:44.167Z,98180.66
2022-10-24T18:24:12.748Z,98177.66
2022-10-24T18:26:41.358Z,98183.06
2022-10-24T18:29:09.934Z,98173.69
2022-10-24T18:31:38.573Z,98182.81
2022-10-24T18:34:08.852Z,98179.63
2022-10-24T18:36:37.734Z,98181.47
2022-10-24T18:39:07.729Z,98194.09
2022-10-24T18:41:42.792Z,98188.06
2022-10-24T18:44:24.161Z,98184.34
2022-10-24T18:46:53.570Z,98179.16
2022-10-24T18:49:22.965Z,98185.00
2022-10-24T18:52:02.340Z,98179.44
2022-10-24T18:54:32.624Z,98187.69
2022-10-24T18:57:01.679Z,98186.84
2022-10-24T18:59:32.326Z,98178.34
2022-10-24T19:02:12.581Z,98177.69
2022-10-24T19:04:43.806Z,98175.34
2022-10-24T19:07:13.671Z,98179.91
2022-10-24T19:09:44.157Z,98182.59
2022-10-24T19:12:13.361Z,98174.69
2022-10-24T19:14:43.018Z,98188.16
2022-10-24T19:17:14.280Z,98191.66
2022-10-24T19:19:42.917Z,98185.47
2022-10-24T19:22:11.530Z,98189.19
2022-10-24T19:24:40.111Z,98179.41
2022-10-24T19:27:10.024Z,98197.88
2022-10-24T19:29:38.570Z,98184.44
2022-10-24T19:32:07.419Z,98185.81
2022-10-24T19:34:37.001Z,98179.25
2022-10-24T19:37:05.666Z,98182.59
2022-10-24T19:39:34.235Z,98180.06
2022-10-24T19:42:02.976Z,98176.03
2022-10-24T19:44:35.939Z,98183.22
2022-10-24T19:47:04.651Z,98185.09
2022-10-24T19:49:33.259Z,98183.88
2022-10-24T19:52:01.948Z,98182.22
2022-10-24T19:54:30.654Z,98183.22
2022-10-24T19:56:59.530Z,98188.81
2022-10-24T19:59:33.719Z,98194.19
2022-10-24T20:02:04.222Z,98191.28
2022-10-24T20:04:32.852Z,98193.16
2022-10-24T20:07:01.417Z,98190.47
2022-10-24T20:09:30.010Z,98191.28
2022-10-24T20:11:58.695Z,98200.38
2022-10-24T20:14:27.290Z,98208.28
2022-10-24T20:16:56.674Z,98207.06
2022-10-24T20:19:27.673Z,98211.22
2022-10-24T20:21:57.865Z,98218.69
2022-10-24T20:24:30.555Z,98206.22
2022-10-24T20:26:59.190Z,98219.03
2022-10-24T20:29:28.492Z,98206.59
2022-10-24T20:31:57.009Z,98205.78
2022-10-24T20:34:27.024Z,98217.34
2022-10-24T20:36:55.693Z,98206.59
2022-10-24T20:39:24.464Z,98209.28
2022-10-24T20:41:54.392Z,98203.91
2022-10-24T20:44:23.278Z,98206.59
2022-10-24T20:46:53.284Z,98206.81
2022-10-24T20:49:21.805Z,98211.16
2022-10-24T20:51:52.124Z,98210.97
2022-10-24T20:54:21.633Z,98208.75
2022-10-24T20:56:50.177Z,98196.97
2022-10-24T20:59:18.710Z,98200.69
2022-10-24T21:01:47.581Z,98201.69
2022-10-24T21:04:19.908Z,98204.56
2022-10-24T21:06:49.839Z,98212.81
2022-10-24T21:09:19.760Z,98207.25
2022-10-24T21:11:48.746Z,98211.97
2022-10-24T21:14:20.608Z,98207.44
2022-10-24T21:16:49.154Z,98211.97
2022-10-24T21:19:17.699Z,98207.63
2022-10-24T21:21:46.307Z,98205.78
2022-10-24T21:24:15.995Z,98213.66
2022-10-24T21:26:45.945Z,98209.94
2022-10-24T21:29:32.235Z,98210.78
2022-10-24T21:32:01.623Z,98218.00
2022-10-24T21:34:33.307Z,98209.94
2022-10-24T21:37:04.419Z,98212.63
2022-10-24T21:39:33.049Z,98205.59
2022-10-24T21:42:03.015Z,98202.91
2022-10-24T21:44:32.085Z,98197.53
2022-10-24T21:47:00.658Z,98193.81
2022-10-24T21:49:29.349Z,98198.00
2022-10-24T21:51:57.799Z,98190.59
2022-10-24T21:54:28.626Z,98214.59
2022-10-24T21:56:57.247Z,98203.81
2022-10-24T21:59:27.185Z,98209.22
2022-10-24T22:01:55.843Z,98216.28
2022-10-24T22:04:24.626Z,98210.91
2022-10-24T22:06:54.066Z,98200.13
2022-10-24T22:09:23.698Z,98202.81
2022-10-24T22:11:54.497Z,98209.88
2022-10-24T22:14:23.292Z,98213.59
2022-10-24T22:16:53.235Z,98218.97
2022-10-24T22:19:21.925Z,98220.78
2022-10-24T22:21:51.757Z,98228.03
2022-10-24T22:24:22.070Z,98221.00
2022-10-24T22:26:50.795Z,98221.00
2022-10-24T22:29:20.549Z,98212.94
2022-10-24T22:31:49.667Z,98221.81
2022-10-24T22:34:23.455Z,98229.06
2022-10-24T22:37:07.030Z,98236.31
2022-10-24T22:39:36.490Z,98237.31
2022-10-24T22:42:07.649Z,98223.03
2022-10-24T22:44:37.285Z,98216.81
2022-10-24T22:47:51.952Z,98218.69
2022-10-24T22:50:43.615Z,98200.84
2022-10-24T22:53:13.434Z,98194.63
2022-10-24T22:55:46.889Z,98184.72
2022-10-24T22:58:16.437Z,98188.22
2022-10-24T23:00:45.113Z,98200.03
2022-10-24T23:03:20.277Z,98187.41
2022-10-24T23:05:54.885Z,98198.16
2022-10-24T23:08:31.120Z,98200.03
2022-10-24T23:11:00.462Z,98209.94
2022-10-24T23:13:30.373Z,98204.56
2022-10-24T23:16:01.345Z,98200.22
2022-10-24T23:18:30.772Z,98200.22
2022-10-24T23:21:06.200Z,98201.06
2022-10-24T23:23:35.175Z,98208.28
2022-10-24T23:26:08.441Z,98203.75
2022-10-24T23:28:40.606Z,98198.38
2022-10-24T23:31:10.185Z,98202.91
2022-10-24T23:33:39.449Z,98202.06
2022-10-24T23:36:11.652Z,98201.22
2022-10-24T23:38:40.988Z,98201.22
2022-10-24T23:41:10.392Z,98203.06
2022-10-24T23:43:39.995Z,98199.56
2022-10-24T23:46:14.464Z,98198.53
2022-10-24T23:48:50.146Z,98202.25
2022-10-24T23:51:24.762Z,98206.59
2022-10-24T23:53:54.612Z,98203.25
2022-10-24T23:56:24.566Z,98202.25
2022-10-24T23:58:53.520Z,98207.63
